createdAt,value
2022-08-04T00:00:10.379Z,94679.28
2022-08-04T00:02:59.670Z,94680.56
2022-08-04T00:05:51.043Z,94692.19
2022-08-04T00:08:43.630Z,94679.75
2022-08-04T00:11:15.519Z,94683.66
2022-08-04T00:13:58.174Z,94685.25
2022-08-04T00:16:38.013Z,94679.19
2022-08-04T00:19:11.983Z,94699.00
2022-08-04T00:21:46.622Z,94699.13
2022-08-04T00:24:16.017Z,94689.94
2022-08-04T00:26:43.807Z,94686.63
2022-08-04T00:29:10.755Z,94678.94
2022-08-04T00:31:55.922Z,94679.28
2022-08-04T00:34:29.603Z,94667.84
2022-08-04T00:36:58.008Z,94655.44
2022-08-04T00:39:26.376Z,94677.94
2022-08-04T00:42:01.458Z,94671.28
2022-08-04T00:44:31.239Z,94672.25
2022-08-04T00:47:16.706Z,94663.59
2022-08-04T00:50:18.648Z,94669.78
2022-08-04T00:53:06.552Z,94658.19
2022-08-04T00:56:23.749Z,94656.53
2022-08-04T00:58:59.329Z,94674.56
2022-08-04T01:01:51.662Z,94675.59
2022-08-04T01:05:02.341Z,94685.63
2022-08-04T01:07:43.337Z,94687.28
2022-08-04T01:10:38.219Z,94677.28
2022-08-04T01:13:07.862Z,94678.50
2022-08-04T01:16:02.411Z,94646.34
2022-08-04T01:18:44.662Z,94667.38
2022-08-04T01:21:29.467Z,94690.19
2022-08-04T01:24:14.518Z,94680.41
2022-08-04T01:27:06.113Z,94689.59
2022-08-04T01:29:49.214Z,94681.69
2022-08-04T01:32:36.862Z,94674.28
2022-08-04T01:35:47.912Z,94661.69
2022-08-04T01:38:26.930Z,94683.75
2022-08-04T01:40:57.530Z,94680.06
2022-08-04T01:43:24.883Z,94678.03
2022-08-04T01:46:00.007Z,94667.56
2022-08-04T01:48:28.575Z,94668.09
2022-08-04T01:51:03.153Z,94676.63
2022-08-04T01:53:34.089Z,94680.09
2022-08-04T01:56:06.106Z,94665.13
2022-08-04T01:58:35.106Z,94669.97
2022-08-04T02:01:03.343Z,94660.50
2022-08-04T02:04:19.594Z,94663.34
2022-08-04T02:06:49.725Z,94658.59
2022-08-04T02:09:31.482Z,94665.34
2022-08-04T02:12:17.433Z,94676.44
2022-08-04T02:15:00.234Z,94670.09
2022-08-04T02:17:41.338Z,94651.16
2022-08-04T02:20:15.327Z,94652.97
2022-08-04T02:22:58.882Z,94623.13
2022-08-04T02:25:28.270Z,94654.63
2022-08-04T02:28:00.423Z,94656.06
2022-08-04T02:30:39.967Z,94669.28
2022-08-04T02:33:07.804Z,94650.75
2022-08-04T02:35:38.638Z,94669.63
2022-08-04T02:38:39.242Z,94650.03
2022-08-04T02:41:07.796Z,94661.53
2022-08-04T02:43:51.703Z,94667.41
2022-08-04T02:46:21.143Z,94669.53
2022-08-04T02:48:49.998Z,94660.88
2022-08-04T02:51:20.289Z,94663.88
2022-08-04T02:53:50.489Z,94664.56
2022-08-04T02:56:20.312Z,94654.13
2022-08-04T02:58:51.649Z,94655.81
2022-08-04T03:01:18.618Z,94658.22
2022-08-04T03:04:24.556Z,94654.94
2022-08-04T03:07:29.079Z,94649.75
2022-08-04T03:10:21.448Z,94645.88
2022-08-04T03:13:02.361Z,94655.00
2022-08-04T03:15:32.058Z,94665.31
2022-08-04T03:18:23.794Z,94660.94
2022-08-04T03:21:22.511Z,94666.28
2022-08-04T03:24:10.677Z,94659.81
2022-08-04T03:26:49.293Z,94658.94
2022-08-04T03:29:49.547Z,94660.34
2022-08-04T03:32:46.888Z,94657.94
2022-08-04T03:35:28.760Z,94648.88
2022-08-04T03:38:24.053Z,94636.91
2022-08-04T03:40:59.782Z,94645.88
2022-08-04T03:43:59.978Z,94655.44
2022-08-04T03:46:48.565Z,94642.31
2022-08-04T03:49:30.285Z,94637.53
2022-08-04T03:52:50.639Z,94654.66
2022-08-04T03:55:35.873Z,94646.72
2022-08-04T03:58:30.546Z,94653.88
2022-08-04T04:01:17.717Z,94652.91
2022-08-04T04:04:21.914Z,94661.78
2022-08-04T04:07:17.541Z,94670.69
2022-08-04T04:09:57.498Z,94660.78
2022-08-04T04:12:46.240Z,94655.63
2022-08-04T04:15:39.391Z,94657.66
2022-08-04T04:18:31.260Z,94650.69
2022-08-04T04:21:19.498Z,94669.22
2022-08-04T04:24:24.414Z,94665.34
2022-08-04T04:27:12.700Z,94672.63
2022-08-04T04:30:12.811Z,94652.16
2022-08-04T04:32:45.371Z,94677.28
2022-08-04T04:35:15.096Z,94664.50
2022-08-04T04:38:02.018Z,94684.13
2022-08-04T04:41:16.007Z,94689.06
2022-08-04T04:44:00.982Z,94668.25
2022-08-04T04:46:41.308Z,94659.19
2022-08-04T04:49:14.231Z,94686.03
2022-08-04T04:52:00.473Z,94669.78
2022-08-04T04:54:56.239Z,94642.72
2022-08-04T04:57:53.313Z,94675.09
2022-08-04T05:00:13.736Z,94671.13
2022-08-04T05:02:49.513Z,94678.78
2022-08-04T05:05:33.671Z,94674.00
2022-08-04T05:08:43.561Z,94659.03
2022-08-04T05:11:13.671Z,94661.66
2022-08-04T05:14:36.277Z,94677.75
2022-08-04T05:16:46.440Z,94676.59
2022-08-04T05:19:38.842Z,94691.38
2022-08-04T05:22:30.718Z,94676.91
2022-08-04T05:25:08.655Z,94658.00
2022-08-04T05:27:40.527Z,94656.03
2022-08-04T05:30:09.005Z,94676.69
2022-08-04T05:32:48.302Z,94673.97
2022-08-04T05:35:56.307Z,94689.28
2022-08-04T05:38:18.675Z,94670.59
2022-08-04T05:40:46.751Z,94660.66
2022-08-04T05:43:15.896Z,94659.06
2022-08-04T05:45:44.831Z,94661.34
2022-08-04T05:48:11.968Z,94673.84
2022-08-04T05:50:39.184Z,94680.50
2022-08-04T05:53:07.098Z,94690.09
2022-08-04T05:55:57.240Z,94705.34
2022-08-04T05:58:22.189Z,94669.41
2022-08-04T06:00:52.418Z,94677.75
2022-08-04T06:03:22.319Z,94685.50
2022-08-04T06:05:50.350Z,94677.84
2022-08-04T06:08:17.487Z,94681.06
2022-08-04T06:10:46.539Z,94676.50
2022-08-04T06:13:46.688Z,94688.19
2022-08-04T06:16:05.731Z,94688.25
2022-08-04T06:20:00.896Z,94686.88
2022-08-04T06:21:23.567Z,94682.69
2022-08-04T06:23:53.634Z,94686.84
2022-08-04T06:26:30.074Z,94693.56
2022-08-04T06:28:57.677Z,94670.97
2022-08-04T06:32:31.690Z,94692.34
2022-08-04T06:34:35.313Z,94684.19
2022-08-04T06:37:03.118Z,94680.75
2022-08-04T06:39:32.118Z,94680.94
2022-08-04T06:42:17.450Z,94708.31
2022-08-04T06:44:50.132Z,94696.91
2022-08-04T06:47:21.338Z,94705.34
2022-08-04T06:51:27.794Z,94693.31
2022-08-04T06:52:39.183Z,94704.19
2022-08-04T06:55:07.974Z,94726.91
2022-08-04T06:57:37.182Z,94711.53
2022-08-04T07:00:03.906Z,94701.19
2022-08-04T07:02:38.961Z,94688.84
2022-08-04T07:05:08.036Z,94703.53
2022-08-04T07:07:37.162Z,94700.75
2022-08-04T07:10:24.869Z,94720.88
2022-08-04T07:12:53.852Z,94731.69
2022-08-04T07:15:21.867Z,94718.06
2022-08-04T07:17:52.150Z,94707.28
2022-08-04T07:20:35.021Z,94704.03
2022-08-04T07:23:04.651Z,94702.66
2022-08-04T07:26:00.278Z,94706.13
2022-08-04T07:28:21.193Z,94694.19
2022-08-04T07:30:49.580Z,94707.19
2022-08-04T07:33:18.201Z,94721.16
2022-08-04T07:36:09.368Z,94720.91
2022-08-04T07:38:37.571Z,94687.38
2022-08-04T07:43:54.904Z,94706.28
2022-08-04T07:46:21.848Z,94716.34
2022-08-04T07:48:48.774Z,94690.94
2022-08-04T07:51:16.984Z,94683.56
2022-08-04T07:53:55.496Z,94705.50
2022-08-04T07:56:23.199Z,94723.34
2022-08-04T07:58:50.491Z,94698.75
2022-08-04T08:01:19.168Z,94716.13
2022-08-04T08:03:46.669Z,94709.72
2022-08-04T08:06:30.780Z,94712.84
2022-08-04T08:09:13.276Z,94726.53
2022-08-04T08:12:36.854Z,94713.63
2022-08-04T08:14:30.847Z,94735.53
2022-08-04T08:17:02.528Z,94722.94
2022-08-04T08:19:31.366Z,94702.41
2022-08-04T08:22:00.545Z,94688.91
2022-08-04T08:24:35.450Z,94720.16
2022-08-04T08:27:06.854Z,94678.34
2022-08-04T08:29:35.136Z,94711.13
2022-08-04T08:32:08.316Z,94698.47
2022-08-04T08:34:37.769Z,94676.91
2022-08-04T08:37:24.420Z,94664.41
2022-08-04T08:40:04.514Z,94701.72
2022-08-04T08:42:40.400Z,94710.50
2022-08-04T08:45:38.136Z,94715.16
2022-08-04T08:48:26.543Z,94723.09
2022-08-04T08:51:11.469Z,94699.97
2022-08-04T08:53:41.283Z,94709.59
2022-08-04T08:56:30.946Z,94722.91
2022-08-04T08:59:37.357Z,94672.09
2022-08-04T09:02:45.217Z,94715.34
2022-08-04T09:05:41.790Z,94694.53
2022-08-04T09:08:11.334Z,94692.41
2022-08-04T09:10:58.903Z,94705.41
2022-08-04T09:13:45.761Z,94719.56
2022-08-04T09:16:15.539Z,94725.59
2022-08-04T09:19:02.598Z,94691.50
2022-08-04T09:21:39.567Z,94716.94
2022-08-04T09:24:37.194Z,94722.09
2022-08-04T09:27:13.915Z,94686.44
2022-08-04T09:29:48.512Z,94710.66
2022-08-04T09:32:44.785Z,94705.00
2022-08-04T09:35:33.647Z,94719.06
2022-08-04T09:38:26.403Z,94717.94
2022-08-04T09:41:26.893Z,94719.16
2022-08-04T09:44:49.241Z,94699.38
2022-08-04T09:47:39.379Z,94692.03
2022-08-04T09:50:39.067Z,94710.56
2022-08-04T09:53:38.523Z,94670.34
2022-08-04T09:56:28.575Z,94719.44
2022-08-04T09:59:26.968Z,94701.88
2022-08-04T10:01:59.757Z,94723.56
2022-08-04T10:04:31.385Z,94689.22
2022-08-04T10:07:02.523Z,94708.72
2022-08-04T10:10:14.344Z,94702.53
2022-08-04T10:12:55.640Z,94701.47
2022-08-04T10:15:36.381Z,94706.44
2022-08-04T10:18:22.743Z,94695.91
2022-08-04T10:21:13.622Z,94682.94
2022-08-04T10:24:07.644Z,94692.47
2022-08-04T10:27:00.217Z,94688.03
2022-08-04T10:29:38.979Z,94671.31
2022-08-04T10:32:39.986Z,94684.63
2022-08-04T10:35:22.515Z,94663.84
2022-08-04T10:38:04.680Z,94666.06
2022-08-04T10:40:45.633Z,94694.22
2022-08-04T10:44:03.860Z,94697.03
2022-08-04T10:46:46.417Z,94684.00
2022-08-04T10:49:23.898Z,94703.06
2022-08-04T10:52:05.463Z,94685.16
2022-08-04T10:54:50.192Z,94698.75
2022-08-04T10:57:33.575Z,94703.69
2022-08-04T11:00:04.911Z,94679.28
2022-08-04T11:02:45.462Z,94694.44
2022-08-04T11:05:21.921Z,94687.56
2022-08-04T11:07:54.006Z,94653.28
2022-08-04T11:10:25.698Z,94671.06
2022-08-04T11:13:00.210Z,94674.00
2022-08-04T11:15:52.982Z,94672.81
2022-08-04T11:18:37.702Z,94695.28
2022-08-04T11:21:16.765Z,94680.63
2022-08-04T11:23:55.167Z,94686.06
2022-08-04T11:26:30.674Z,94682.31
2022-08-04T11:29:20.400Z,94671.63
2022-08-04T11:31:52.009Z,94683.28
2022-08-04T11:34:26.926Z,94712.13
2022-08-04T11:37:03.002Z,94712.56
2022-08-04T11:39:35.807Z,94690.69
2022-08-04T11:42:08.046Z,94699.16
2022-08-04T11:44:42.351Z,94687.00
2022-08-04T11:47:22.255Z,94681.78
2022-08-04T11:49:58.076Z,94674.13
2022-08-04T11:52:28.216Z,94696.13
2022-08-04T11:54:57.187Z,94667.16
2022-08-04T11:57:25.727Z,94696.28
2022-08-04T12:00:07.141Z,94669.56
2022-08-04T12:02:55.998Z,94699.19
2022-08-04T12:05:36.858Z,94680.75
2022-08-04T12:08:25.799Z,94672.03
2022-08-04T12:11:11.024Z,94697.47
2022-08-04T12:14:01.947Z,94665.66
2022-08-04T12:16:40.711Z,94640.69
2022-08-04T12:19:21.629Z,94654.97
2022-08-04T12:21:55.927Z,94647.69
2022-08-04T12:24:34.463Z,94654.16
2022-08-04T12:27:18.359Z,94656.41
2022-08-04T12:30:57.204Z,94675.50
2022-08-04T12:32:53.580Z,94652.06
2022-08-04T12:35:25.479Z,94657.72
2022-08-04T12:37:52.545Z,94652.50
2022-08-04T12:40:29.931Z,94639.31
2022-08-04T12:43:09.104Z,94650.28
2022-08-04T12:45:36.667Z,94654.56
2022-08-04T12:48:06.380Z,94646.09
2022-08-04T12:50:34.452Z,94619.13
2022-08-04T12:53:03.489Z,94660.03
2022-08-04T12:55:34.145Z,94625.84
2022-08-04T12:58:04.416Z,94633.28
2022-08-04T13:00:41.599Z,94625.50
2022-08-04T13:03:12.282Z,94633.31
2022-08-04T13:05:43.188Z,94648.47
2022-08-04T13:08:11.867Z,94628.66
2022-08-04T13:10:47.506Z,94657.47
2022-08-04T13:13:19.944Z,94639.41
2022-08-04T13:16:01.693Z,94645.78
2022-08-04T13:18:32.836Z,94643.34
2022-08-04T13:21:20.452Z,94610.97
2022-08-04T13:24:10.936Z,94625.44
2022-08-04T13:26:58.277Z,94629.81
2022-08-04T13:29:58.836Z,94631.56
2022-08-04T13:32:28.766Z,94636.41
2022-08-04T13:34:59.925Z,94606.94
2022-08-04T13:37:33.519Z,94599.44
2022-08-04T13:40:03.263Z,94590.34
2022-08-04T13:42:31.546Z,94593.28
2022-08-04T13:45:00.996Z,94603.63
2022-08-04T13:47:31.864Z,94607.34
2022-08-04T13:50:13.957Z,94619.53
2022-08-04T13:52:42.165Z,94600.69
2022-08-04T13:55:38.342Z,94586.16
2022-08-04T13:58:19.635Z,94585.88
2022-08-04T14:01:10.934Z,94605.09
2022-08-04T14:03:53.312Z,94573.16
2022-08-04T14:06:25.485Z,94580.16
2022-08-04T14:08:57.861Z,94591.81
2022-08-04T14:12:08.808Z,94575.06
2022-08-04T14:14:31.195Z,94562.50
2022-08-04T14:17:20.280Z,94572.56
2022-08-04T14:19:47.905Z,94597.25
2022-08-04T14:22:26.888Z,94585.84
2022-08-04T14:25:15.678Z,94585.63
2022-08-04T14:27:57.330Z,94608.00
2022-08-04T14:30:29.791Z,94588.63
2022-08-04T14:34:01.281Z,94602.56
2022-08-04T14:35:59.044Z,94598.53
2022-08-04T14:38:44.040Z,94575.63
2022-08-04T14:41:11.662Z,94587.78
2022-08-04T14:43:59.135Z,94589.06
2022-08-04T14:46:35.109Z,94583.66
2022-08-04T14:49:11.998Z,94585.25
2022-08-04T14:51:59.552Z,94593.03
2022-08-04T14:54:35.460Z,94573.69
2022-08-04T14:57:05.537Z,94560.34
2022-08-04T15:00:01.487Z,94583.44
2022-08-04T15:02:29.891Z,94572.16
2022-08-04T15:04:57.498Z,94569.91
2022-08-04T15:07:24.790Z,94585.94
2022-08-04T15:09:51.806Z,94574.94
2022-08-04T15:12:18.882Z,94566.50
2022-08-04T15:14:45.707Z,94549.53
2022-08-04T15:17:30.001Z,94576.53
2022-08-04T15:19:58.438Z,94576.53
2022-08-04T15:22:25.441Z,94586.69
2022-08-04T15:24:55.334Z,94576.75
2022-08-04T15:27:27.337Z,94557.75
2022-08-04T15:29:59.601Z,94554.50
2022-08-04T15:32:34.816Z,94563.38
2022-08-04T15:35:04.835Z,94563.19
2022-08-04T15:37:56.798Z,94576.47
2022-08-04T15:40:44.135Z,94536.44
2022-08-04T15:43:55.294Z,94548.44
2022-08-04T15:46:46.760Z,94559.63
2022-08-04T15:49:21.345Z,94545.38
2022-08-04T15:51:59.622Z,94536.38
2022-08-04T15:54:32.768Z,94532.00
2022-08-04T15:57:02.166Z,94531.03
2022-08-04T16:00:00.385Z,94535.59
2022-08-04T16:02:33.297Z,94507.91
2022-08-04T16:05:20.515Z,94513.34
2022-08-04T16:08:13.262Z,94526.13
2022-08-04T16:10:45.344Z,94514.75
2022-08-04T16:13:17.215Z,94525.47
2022-08-04T16:15:51.635Z,94502.03
2022-08-04T16:18:30.832Z,94502.75
2022-08-04T16:21:02.498Z,94508.53
2022-08-04T16:23:58.037Z,94518.69
2022-08-04T16:26:38.258Z,94472.47
2022-08-04T16:29:36.666Z,94484.97
2022-08-04T16:32:12.491Z,94463.63
2022-08-04T16:35:05.210Z,94485.84
2022-08-04T16:37:36.142Z,94496.38
2022-08-04T16:40:41.114Z,94491.69
2022-08-04T16:43:20.785Z,94487.88
2022-08-04T16:45:54.497Z,94479.88
2022-08-04T16:48:29.450Z,94502.13
2022-08-04T16:51:07.279Z,94525.84
2022-08-04T16:54:03.769Z,94517.69
2022-08-04T16:56:33.914Z,94498.56
2022-08-04T16:59:09.803Z,94482.00
2022-08-04T17:01:38.486Z,94471.19
2022-08-04T17:04:06.506Z,94461.59
2022-08-04T17:06:38.792Z,94452.38
2022-08-04T17:09:10.079Z,94449.28
2022-08-04T17:11:37.040Z,94473.78
2022-08-04T17:14:05.681Z,94482.03
2022-08-04T17:16:43.253Z,94469.53
2022-08-04T17:19:25.234Z,94449.44
2022-08-04T17:22:04.804Z,94462.13
2022-08-04T17:24:35.211Z,94473.06
2022-08-04T17:27:04.297Z,94484.78
2022-08-04T17:29:49.336Z,94472.78
2022-08-04T17:32:19.809Z,94479.97
2022-08-04T17:35:05.117Z,94473.22
2022-08-04T17:37:52.121Z,94474.38
2022-08-04T17:40:25.741Z,94483.56
2022-08-04T17:44:01.156Z,94458.31
2022-08-04T17:46:28.169Z,94423.97
2022-08-04T17:49:02.894Z,94456.38
2022-08-04T17:52:05.208Z,94446.25
2022-08-04T17:54:39.531Z,94457.91
2022-08-04T17:57:27.419Z,94449.19
2022-08-04T18:00:00.003Z,94451.25
2022-08-04T18:02:36.097Z,94444.56
2022-08-04T18:05:07.355Z,94459.06
2022-08-04T18:08:46.277Z,94461.16
2022-08-04T18:10:51.692Z,94475.91
2022-08-04T18:13:27.213Z,94470.44
2022-08-04T18:16:04.930Z,94471.25
2022-08-04T18:18:32.296Z,94460.38
2022-08-04T18:21:02.871Z,94472.09
2022-08-04T18:23:31.847Z,94466.19
2022-08-04T18:26:02.023Z,94475.84
2022-08-04T18:28:30.730Z,94461.13
2022-08-04T18:31:00.225Z,94467.72
2022-08-04T18:33:37.804Z,94470.50
2022-08-04T18:36:32.707Z,94484.50
2022-08-04T18:38:59.496Z,94480.94
2022-08-04T18:42:02.561Z,94482.34
2022-08-04T18:44:36.369Z,94468.59
2022-08-04T18:47:23.166Z,94468.75
2022-08-04T18:51:00.231Z,94490.53
2022-08-04T18:52:45.307Z,94489.22
2022-08-04T18:55:55.615Z,94480.84
2022-08-04T18:58:07.203Z,94484.16
2022-08-04T19:00:35.378Z,94494.66
2022-08-04T19:03:02.333Z,94487.16
2022-08-04T19:05:37.746Z,94488.28
2022-08-04T19:08:33.783Z,94474.88
2022-08-04T19:10:59.420Z,94502.84
2022-08-04T19:13:27.975Z,94499.69
2022-08-04T19:15:54.883Z,94502.03
2022-08-04T19:18:26.046Z,94493.56
2022-08-04T19:20:55.120Z,94502.59
2022-08-04T19:24:28.244Z,94502.84
2022-08-04T19:26:17.947Z,94515.94
2022-08-04T19:28:55.132Z,94521.25
2022-08-04T19:31:34.035Z,94509.72
2022-08-04T19:34:07.461Z,94511.69
2022-08-04T19:36:34.955Z,94502.84
2022-08-04T19:39:11.631Z,94509.88
2022-08-04T19:42:05.735Z,94511.59
2022-08-04T19:44:29.914Z,94530.28
2022-08-04T19:47:00.797Z,94531.22
2022-08-04T19:50:05.055Z,94537.47
2022-08-04T19:52:34.016Z,94531.47
2022-08-04T19:55:09.889Z,94537.66
2022-08-04T19:57:46.315Z,94523.28
2022-08-04T20:00:32.841Z,94545.38
2022-08-04T20:03:02.014Z,94527.00
2022-08-04T20:05:54.351Z,94529.75
2022-08-04T20:08:17.680Z,94548.16
2022-08-04T20:10:51.537Z,94539.91
2022-08-04T20:13:20.886Z,94529.75
2022-08-04T20:15:58.056Z,94541.25
2022-08-04T20:18:36.782Z,94546.78
2022-08-04T20:21:19.445Z,94553.91
2022-08-04T20:23:52.500Z,94519.75
2022-08-04T20:26:20.184Z,94529.09
2022-08-04T20:28:51.807Z,94536.41
2022-08-04T20:31:19.864Z,94552.28
2022-08-04T20:33:49.290Z,94540.56
2022-08-04T20:36:22.622Z,94546.47
2022-08-04T20:38:53.166Z,94538.59
2022-08-04T20:41:21.595Z,94549.03
2022-08-04T20:43:49.994Z,94525.50
2022-08-04T20:46:29.771Z,94531.91
2022-08-04T20:48:58.402Z,94542.28
2022-08-04T20:51:31.873Z,94541.34
2022-08-04T20:54:01.893Z,94542.81
2022-08-04T20:56:30.757Z,94539.94
2022-08-04T20:58:59.981Z,94537.19
2022-08-04T21:01:30.303Z,94535.38
2022-08-04T21:04:27.427Z,94541.72
2022-08-04T21:06:57.277Z,94533.06
2022-08-04T21:09:37.262Z,94532.69
2022-08-04T21:12:10.218Z,94541.22
2022-08-04T21:14:37.144Z,94543.94
2022-08-04T21:17:07.116Z,94535.75
2022-08-04T21:19:36.783Z,94534.59
2022-08-04T21:22:10.581Z,94544.19
2022-08-04T21:24:38.137Z,94509.72
2022-08-04T21:27:07.097Z,94538.47
2022-08-04T21:29:37.060Z,94559.94
2022-08-04T21:32:07.677Z,94545.78
2022-08-04T21:34:39.310Z,94543.19
2022-08-04T21:37:09.299Z,94556.13
2022-08-04T21:39:43.914Z,94548.38
2022-08-04T21:42:42.705Z,94545.00
2022-08-04T21:45:11.142Z,94538.13
2022-08-04T21:47:46.550Z,94552.94
2022-08-04T21:50:20.045Z,94539.91
2022-08-04T21:52:48.345Z,94546.31
2022-08-04T21:55:15.954Z,94534.75
2022-08-04T21:57:42.821Z,94549.38
2022-08-04T22:00:10.904Z,94566.41
2022-08-04T22:02:45.459Z,94561.03
2022-08-04T22:05:15.911Z,94562.69
2022-08-04T22:07:49.794Z,94555.19
2022-08-04T22:10:32.071Z,94558.97
2022-08-04T22:13:07.036Z,94560.91
2022-08-04T22:16:04.691Z,94558.06
2022-08-04T22:18:24.399Z,94556.88
2022-08-04T22:20:54.904Z,94554.00
2022-08-04T22:23:24.273Z,94554.09
2022-08-04T22:25:53.719Z,94565.13
2022-08-04T22:28:27.911Z,94570.91
2022-08-04T22:30:56.353Z,94557.38
2022-08-04T22:33:23.463Z,94547.00
2022-08-04T22:36:11.938Z,94546.81
2022-08-04T22:38:51.096Z,94548.16
2022-08-04T22:41:21.247Z,94544.72
2022-08-04T22:43:54.791Z,94538.97
2022-08-04T22:46:27.257Z,94527.88
2022-08-04T22:48:54.926Z,94537.16
2022-08-04T22:51:22.763Z,94522.91
2022-08-04T22:53:51.018Z,94543.94
2022-08-04T22:56:37.254Z,94539.13
2022-08-04T22:59:10.055Z,94518.91
2022-08-04T23:01:59.180Z,94524.28
2022-08-04T23:04:25.905Z,94534.91
2022-08-04T23:06:54.766Z,94543.34
2022-08-04T23:09:22.249Z,94521.22
2022-08-04T23:12:24.330Z,94524.22
2022-08-04T23:14:52.429Z,94539.25
2022-08-04T23:17:19.162Z,94540.41
2022-08-04T23:19:57.919Z,94528.91
2022-08-04T23:22:37.077Z,94523.34
2022-08-04T23:25:15.425Z,94541.38
2022-08-04T23:27:43.717Z,94535.38
2022-08-04T23:30:11.404Z,94528.59
2022-08-04T23:32:38.332Z,94536.28
2022-08-04T23:35:05.842Z,94528.59
2022-08-04T23:37:36.618Z,94539.53
2022-08-04T23:40:32.696Z,94529.63
2022-08-04T23:43:01.956Z,94539.34
2022-08-04T23:46:03.999Z,94526.59
2022-08-04T23:48:19.052Z,94506.09
2022-08-04T23:50:48.014Z,94534.75
2022-08-04T23:53:18.423Z,94536.69
2022-08-04T23:55:49.183Z,94528.28
2022-08-04T23:58:18.949Z,94496.19
